createdAt,value
2022-12-19T00:01:36.811Z,93.25
2022-12-19T00:04:08.216Z,105.72
2022-12-19T00:06:36.469Z,98.60
2022-12-19T00:09:04.079Z,93.95
2022-12-19T00:11:31.165Z,97.95
2022-12-19T00:13:59.478Z,98.45
2022-12-19T00:16:29.094Z,103.28
2022-12-19T00:19:00.055Z,101.10
2022-12-19T00:21:29.169Z,80.15
2022-12-19T00:23:57.054Z,97.25
2022-12-19T00:26:31.745Z,97.90
2022-12-19T00:29:06.767Z,92.30
2022-12-19T00:31:38.032Z,91.53
2022-12-19T00:34:05.374Z,114.20
2022-12-19T00:36:34.325Z,98.18
2022-12-19T00:39:07.724Z,108.95
2022-12-19T00:41:38.733Z,109.03
2022-12-19T00:44:12.382Z,78.13
2022-12-19T00:46:39.279Z,95.72
2022-12-19T00:49:06.849Z,102.43
2022-12-19T00:51:36.662Z,88.55
2022-12-19T00:54:06.661Z,101.00
2022-12-19T00:56:37.893Z,95.38
2022-12-19T00:59:06.305Z,86.93
2022-12-19T01:01:37.096Z,72.75
2022-12-19T01:06:53.215Z,95.85
2022-12-19T01:09:22.147Z,92.82
2022-12-19T01:12:07.380Z,89.50
2022-12-19T01:14:34.677Z,86.10
2022-12-19T01:17:01.531Z,81.70
2022-12-19T01:19:29.751Z,83.07
2022-12-19T01:21:56.507Z,112.00
2022-12-19T01:24:24.595Z,98.22
2022-12-19T01:26:52.036Z,81.40
2022-12-19T01:29:19.290Z,93.95
2022-12-19T01:31:46.665Z,115.30
2022-12-19T01:34:13.888Z,132.60
2022-12-19T01:36:41.066Z,114.88
2022-12-19T01:39:08.445Z,106.60
2022-12-19T01:41:36.271Z,81.80
2022-12-19T01:44:06.787Z,106.05
2022-12-19T01:46:37.243Z,90.03
2022-12-19T01:49:06.219Z,94.47
2022-12-19T01:51:41.320Z,102.32
2022-12-19T01:54:15.664Z,106.28
2022-12-19T01:56:47.575Z,113.47
2022-12-19T01:59:23.277Z,109.45
2022-12-19T02:01:57.233Z,113.75
2022-12-19T02:04:30.963Z,107.93
2022-12-19T02:07:06.305Z,98.70
2022-12-19T02:09:43.363Z,104.25
2022-12-19T02:12:10.563Z,118.93
2022-12-19T02:14:37.757Z,118.22
2022-12-19T02:17:26.670Z,109.13
2022-12-19T02:20:24.005Z,118.57
2022-12-19T02:23:18.561Z,88.18
2022-12-19T02:26:01.475Z,96.85
2022-12-19T02:28:47.871Z,97.07
2022-12-19T02:31:17.404Z,122.78
2022-12-19T02:33:47.305Z,103.03
2022-12-19T02:36:21.910Z,119.85
2022-12-19T02:38:56.878Z,103.35
2022-12-19T02:41:29.484Z,107.82
2022-12-19T02:43:59.217Z,108.40
2022-12-19T02:46:28.694Z,130.25
2022-12-19T02:48:56.012Z,110.35
2022-12-19T02:51:23.206Z,111.00
2022-12-19T02:53:51.244Z,115.00
2022-12-19T02:56:18.411Z,111.55
2022-12-19T02:59:06.638Z,118.57
2022-12-19T03:01:45.489Z,131.70
2022-12-19T03:04:45.577Z,102.20
2022-12-19T03:07:21.740Z,101.15
2022-12-19T03:10:09.054Z,83.30
2022-12-19T03:12:50.371Z,92.90
2022-12-19T03:15:17.741Z,123.40
2022-12-19T03:17:44.972Z,115.38
2022-12-19T03:20:26.106Z,115.70
2022-12-19T03:22:53.801Z,107.85
2022-12-19T03:25:22.503Z,100.00
2022-12-19T03:27:52.361Z,103.35
2022-12-19T03:30:19.608Z,97.60
2022-12-19T03:32:48.319Z,105.40
2022-12-19T03:35:22.981Z,108.97
2022-12-19T03:37:52.436Z,105.50
2022-12-19T03:40:24.654Z,78.95
2022-12-19T03:43:09.642Z,95.55
2022-12-19T03:45:59.933Z,73.80
2022-12-19T03:48:47.316Z,101.85
2022-12-19T03:51:38.181Z,114.82
2022-12-19T03:54:15.884Z,100.60
2022-12-19T03:56:56.197Z,108.38
2022-12-19T03:59:36.823Z,102.30
2022-12-19T04:02:05.215Z,116.72
2022-12-19T04:04:38.481Z,93.85
2022-12-19T04:07:07.779Z,98.90
2022-12-19T04:09:37.533Z,92.07
2022-12-19T04:12:10.156Z,95.40
2022-12-19T04:14:39.165Z,106.20
2022-12-19T04:17:13.344Z,100.80
2022-12-19T04:20:05.804Z,121.13
2022-12-19T04:22:54.623Z,117.32
2022-12-19T04:25:31.040Z,113.78
2022-12-19T04:28:03.275Z,84.80
2022-12-19T04:30:30.689Z,92.25
2022-12-19T04:33:04.402Z,110.82
2022-12-19T04:35:31.742Z,107.13
2022-12-19T04:37:59.212Z,105.10
2022-12-19T04:40:26.090Z,107.90
2022-12-19T04:42:53.269Z,92.63
2022-12-19T04:45:20.220Z,87.72
2022-12-19T04:47:47.851Z,100.43
2022-12-19T04:50:14.969Z,100.63
2022-12-19T04:52:41.709Z,98.07
2022-12-19T04:55:09.670Z,97.80
2022-12-19T04:57:36.468Z,96.38
2022-12-19T05:00:07.560Z,86.15
2022-12-19T05:02:38.156Z,84.43
2022-12-19T05:05:06.009Z,96.45
2022-12-19T05:07:32.895Z,77.60
2022-12-19T05:10:00.132Z,73.38
2022-12-19T05:12:29.156Z,85.18
2022-12-19T05:14:56.534Z,86.20
2022-12-19T05:17:23.338Z,102.10
2022-12-19T05:19:50.578Z,70.30
2022-12-19T05:22:17.598Z,84.85
2022-12-19T05:24:45.765Z,79.60
2022-12-19T05:27:15.537Z,77.65
2022-12-19T05:29:42.328Z,76.63
2022-12-19T05:32:09.202Z,92.65
2022-12-19T05:34:38.597Z,75.78
2022-12-19T05:37:05.827Z,84.00
2022-12-19T05:39:32.574Z,71.25
2022-12-19T05:41:59.784Z,77.38
2022-12-19T05:44:26.941Z,86.90
2022-12-19T05:46:54.780Z,77.40
2022-12-19T05:49:21.966Z,80.80
2022-12-19T05:51:53.500Z,80.65
2022-12-19T05:54:20.309Z,79.07
2022-12-19T05:56:47.137Z,92.38
2022-12-19T05:59:14.485Z,78.45
2022-12-19T06:01:42.629Z,90.22
2022-12-19T06:04:11.211Z,84.30
2022-12-19T06:06:38.837Z,78.78
2022-12-19T06:09:05.725Z,93.88
2022-12-19T06:11:32.649Z,75.57
2022-12-19T06:13:59.773Z,83.15
2022-12-19T06:16:26.974Z,79.80
2022-12-19T06:18:55.636Z,86.68
2022-12-19T06:21:23.289Z,65.97
2022-12-19T06:23:51.169Z,91.97
2022-12-19T06:26:20.538Z,82.63
2022-12-19T06:28:49.668Z,72.50
2022-12-19T06:31:17.530Z,77.30
2022-12-19T06:33:44.802Z,78.05
2022-12-19T06:36:24.471Z,93.40
2022-12-19T06:38:51.859Z,77.20
2022-12-19T06:41:38.846Z,81.20
2022-12-19T06:44:07.163Z,70.68
2022-12-19T06:46:35.525Z,79.20
2022-12-19T06:49:02.459Z,79.18
2022-12-19T06:51:29.860Z,75.43
2022-12-19T06:53:57.319Z,76.60
2022-12-19T06:56:24.850Z,79.35
2022-12-19T06:58:52.271Z,66.25
2022-12-19T07:01:46.300Z,68.20
2022-12-19T07:04:18.279Z,65.55
2022-12-19T07:06:49.200Z,68.82
2022-12-19T07:09:17.119Z,66.20
2022-12-19T07:11:44.420Z,77.68
2022-12-19T07:14:11.589Z,68.53
2022-12-19T07:16:38.552Z,66.10
2022-12-19T07:19:07.232Z,70.25
2022-12-19T07:21:36.398Z,71.20
2022-12-19T07:24:04.740Z,81.53
2022-12-19T07:26:32.526Z,67.25
2022-12-19T07:29:00.214Z,64.20
2022-12-19T07:31:27.020Z,73.22
2022-12-19T07:33:54.271Z,78.80
2022-12-19T07:36:21.637Z,57.00
2022-12-19T07:38:48.399Z,66.60
2022-12-19T07:41:15.576Z,76.45
2022-12-19T07:43:42.351Z,68.68
2022-12-19T07:46:09.235Z,69.15
2022-12-19T07:48:36.015Z,79.63
2022-12-19T07:51:05.920Z,64.55
2022-12-19T07:53:32.989Z,70.35
2022-12-19T07:55:59.871Z,65.28
2022-12-19T07:58:26.651Z,54.58
2022-12-19T08:00:57.927Z,68.82
2022-12-19T08:03:25.767Z,65.40
2022-12-19T08:05:52.647Z,78.68
2022-12-19T08:08:21.210Z,58.58
2022-12-19T08:10:48.000Z,57.70
2022-12-19T08:13:14.806Z,55.90
2022-12-19T08:15:41.576Z,60.38
2022-12-19T08:18:08.559Z,56.08
2022-12-19T08:20:35.763Z,59.30
2022-12-19T08:23:02.563Z,49.97
2022-12-19T08:25:29.698Z,59.65
2022-12-19T08:27:56.947Z,56.90
2022-12-19T08:30:24.599Z,64.38
2022-12-19T08:32:51.970Z,56.97
2022-12-19T08:35:18.706Z,50.78
2022-12-19T08:37:46.009Z,44.85
2022-12-19T08:40:13.035Z,48.30
2022-12-19T08:42:40.828Z,49.72
2022-12-19T08:45:08.395Z,52.17
2022-12-19T08:47:35.679Z,47.63
2022-12-19T08:50:04.428Z,62.70
2022-12-19T08:52:31.328Z,53.10
2022-12-19T08:54:58.095Z,56.10
2022-12-19T08:57:25.192Z,46.90
2022-12-19T08:59:51.982Z,59.20
2022-12-19T09:02:20.131Z,47.85
2022-12-19T09:05:58.153Z,54.78
2022-12-19T09:07:38.803Z,51.90
2022-12-19T09:10:07.243Z,48.67
2022-12-19T09:12:33.988Z,75.47
2022-12-19T09:15:00.823Z,51.00
2022-12-19T09:17:28.966Z,49.53
2022-12-19T09:19:56.765Z,59.55
2022-12-19T09:22:23.706Z,64.63
2022-12-19T09:24:57.961Z,52.25
2022-12-19T09:27:24.813Z,44.83
2022-12-19T09:29:52.107Z,42.85
2022-12-19T09:32:18.907Z,41.08
2022-12-19T09:34:45.631Z,45.40
2022-12-19T09:37:16.133Z,47.67
2022-12-19T09:39:46.350Z,47.78
2022-12-19T09:42:22.906Z,51.30
2022-12-19T09:44:56.129Z,55.78
2022-12-19T09:47:26.762Z,46.38
2022-12-19T09:49:56.582Z,47.70
2022-12-19T09:52:37.877Z,49.25
2022-12-19T09:55:22.533Z,39.63
2022-12-19T09:58:15.979Z,44.30
2022-12-19T10:00:47.737Z,46.47
2022-12-19T10:03:40.270Z,35.42
2022-12-19T10:07:09.202Z,45.50
2022-12-19T10:10:10.705Z,38.25
2022-12-19T10:12:51.439Z,34.88
2022-12-19T10:15:44.491Z,41.05
2022-12-19T10:18:56.981Z,37.72
2022-12-19T10:21:59.526Z,49.45
2022-12-19T10:24:35.010Z,36.70
2022-12-19T10:27:13.643Z,42.22
2022-12-19T10:30:14.896Z,40.20
2022-12-19T10:33:19.960Z,33.10
2022-12-19T10:35:57.535Z,44.17
2022-12-19T10:38:46.311Z,41.38
2022-12-19T10:41:25.889Z,35.40
2022-12-19T10:44:07.840Z,34.25
2022-12-19T10:46:46.714Z,35.90
2022-12-19T10:49:17.948Z,34.53
2022-12-19T10:52:02.513Z,30.75
2022-12-19T10:54:41.818Z,37.25
2022-12-19T10:57:30.071Z,31.98
2022-12-19T11:00:15.676Z,36.30
2022-12-19T11:02:48.640Z,31.23
2022-12-19T11:05:29.605Z,34.53
2022-12-19T11:08:03.450Z,37.60
2022-12-19T11:12:05.296Z,36.45
2022-12-19T11:19:29.680Z,34.78
2022-12-19T11:23:36.077Z,30.05
2022-12-19T11:29:30.549Z,34.00
2022-12-19T11:29:30.747Z,24.27
2022-12-19T11:29:37.372Z,21.95
2022-12-19T11:30:25.738Z,23.38
2022-12-19T11:34:16.706Z,23.33
2022-12-19T11:36:55.143Z,16.77
2022-12-19T11:39:30.179Z,16.08
2022-12-19T11:42:10.230Z,15.02
2022-12-19T11:45:02.949Z,18.85
2022-12-19T11:47:45.727Z,18.10
2022-12-19T11:50:22.304Z,20.95
2022-12-19T11:53:18.563Z,18.80
2022-12-19T11:56:15.833Z,18.65
2022-12-19T11:58:55.376Z,27.60
2022-12-19T12:01:37.840Z,19.60
2022-12-19T12:04:44.646Z,23.70
2022-12-19T12:07:39.037Z,22.67
2022-12-19T12:13:27.120Z,23.67
2022-12-19T12:22:32.894Z,24.55
2022-12-19T12:29:58.634Z,21.08
2022-12-19T12:31:09.514Z,23.95
2022-12-19T12:31:15.791Z,25.35
2022-12-19T12:31:48.722Z,30.25
2022-12-19T12:31:49.685Z,27.83
2022-12-19T12:35:38.053Z,20.55
2022-12-19T12:40:33.020Z,27.92
2022-12-19T12:43:34.554Z,30.52
2022-12-19T12:46:05.102Z,26.42
2022-12-19T12:48:35.767Z,28.25
2022-12-19T12:51:03.999Z,37.38
2022-12-19T12:53:38.387Z,31.85
2022-12-19T12:56:07.844Z,25.85
2022-12-19T12:58:47.014Z,36.58
2022-12-19T13:01:28.998Z,26.20
2022-12-19T13:04:06.049Z,37.78
2022-12-19T13:06:41.298Z,28.10
2022-12-19T13:09:20.382Z,36.50
2022-12-19T13:12:07.314Z,37.38
2022-12-19T13:14:34.212Z,29.67
2022-12-19T13:17:03.467Z,27.23
2022-12-19T13:19:35.345Z,33.30
2022-12-19T13:22:05.270Z,29.98
2022-12-19T13:24:52.600Z,31.17
2022-12-19T13:27:22.408Z,28.52
2022-12-19T13:30:20.137Z,33.65
2022-12-19T13:32:47.012Z,36.53
2022-12-19T13:36:10.821Z,26.63
2022-12-19T13:39:57.475Z,34.25
2022-12-19T13:41:50.199Z,35.03
2022-12-19T13:44:22.799Z,29.10
2022-12-19T13:46:50.213Z,37.58
2022-12-19T13:49:23.421Z,33.63
2022-12-19T13:51:57.292Z,36.95
2022-12-19T13:54:33.119Z,35.97
2022-12-19T13:57:03.887Z,30.30
2022-12-19T13:59:38.965Z,39.72
2022-12-19T14:02:46.596Z,37.10
2022-12-19T14:06:17.831Z,33.78
2022-12-19T14:08:25.412Z,41.85
2022-12-19T14:11:45.500Z,42.78
2022-12-19T14:14:27.640Z,39.80
2022-12-19T14:17:05.601Z,31.80
2022-12-19T14:19:39.381Z,30.27
2022-12-19T14:22:36.005Z,31.63
2022-12-19T14:25:45.227Z,40.35
2022-12-19T14:28:26.023Z,34.13
2022-12-19T14:30:57.550Z,39.13
2022-12-19T14:33:58.403Z,38.22
2022-12-19T14:36:29.779Z,33.97
2022-12-19T14:39:26.576Z,38.90
2022-12-19T14:42:08.719Z,33.15
2022-12-19T14:52:34.498Z,33.58
2022-12-19T14:52:50.940Z,36.13
2022-12-19T14:54:10.588Z,35.13
2022-12-19T14:54:42.092Z,32.47
2022-12-19T14:56:57.672Z,34.08
2022-12-19T14:59:05.602Z,41.63
2022-12-19T15:01:35.171Z,37.20
2022-12-19T15:04:51.681Z,38.58
2022-12-19T15:07:12.347Z,44.00
2022-12-19T15:11:03.269Z,41.88
2022-12-19T15:14:55.228Z,38.25
2022-12-19T15:16:06.243Z,32.72
2022-12-19T15:18:33.131Z,40.03
2022-12-19T15:21:06.374Z,38.40
2022-12-19T15:23:33.408Z,42.45
2022-12-19T15:26:08.173Z,33.08
2022-12-19T15:28:56.830Z,39.58
2022-12-19T15:31:43.078Z,43.42
2022-12-19T15:34:41.867Z,33.33
2022-12-19T15:37:14.590Z,31.55
2022-12-19T15:39:42.649Z,53.53
2022-12-19T15:42:28.280Z,35.22
2022-12-19T15:45:00.193Z,41.95
2022-12-19T15:47:36.024Z,36.25
2022-12-19T15:50:18.699Z,34.92
2022-12-19T15:52:46.906Z,37.25
2022-12-19T15:55:16.804Z,33.10
2022-12-19T15:57:51.674Z,29.30
2022-12-19T16:00:24.547Z,36.28
2022-12-19T16:05:42.234Z,34.45
2022-12-19T16:08:20.676Z,37.55
2022-12-19T16:11:01.107Z,46.10
2022-12-19T16:13:32.022Z,45.08
2022-12-19T16:15:59.490Z,43.15
2022-12-19T16:18:26.385Z,36.90
2022-12-19T16:20:54.983Z,37.83
2022-12-19T16:23:25.524Z,37.47
2022-12-19T16:25:53.945Z,45.40
2022-12-19T16:28:28.963Z,37.72
2022-12-19T16:30:58.162Z,34.22
2022-12-19T16:33:30.415Z,37.05
2022-12-19T16:36:06.583Z,37.28
2022-12-19T16:38:36.293Z,46.35
2022-12-19T16:41:03.779Z,36.60
2022-12-19T16:43:35.932Z,34.05
2022-12-19T16:46:06.562Z,36.00
2022-12-19T16:48:36.105Z,45.65
2022-12-19T16:51:03.370Z,34.60
2022-12-19T16:53:31.210Z,42.88
2022-12-19T16:55:59.983Z,36.05
2022-12-19T16:58:28.768Z,37.13
2022-12-19T17:00:56.261Z,31.35
2022-12-19T17:03:31.911Z,35.35
2022-12-19T17:05:59.157Z,35.17
2022-12-19T17:08:26.313Z,32.90
2022-12-19T17:10:54.465Z,32.83
2022-12-19T17:13:22.465Z,36.10
2022-12-19T17:15:56.375Z,41.28
2022-12-19T17:18:29.119Z,34.72
2022-12-19T17:20:56.464Z,31.10
2022-12-19T17:23:24.815Z,33.20
2022-12-19T17:25:55.257Z,34.35
2022-12-19T17:28:22.728Z,34.80
2022-12-19T17:30:52.903Z,35.38
2022-12-19T17:33:22.632Z,34.28
2022-12-19T17:35:49.372Z,36.92
2022-12-19T17:38:18.113Z,37.83
2022-12-19T17:40:45.262Z,43.25
2022-12-19T17:43:13.440Z,34.25
2022-12-19T17:45:41.006Z,30.70
2022-12-19T17:48:19.886Z,32.15
2022-12-19T17:50:46.744Z,33.08
2022-12-19T17:53:14.687Z,30.05
2022-12-19T17:55:42.452Z,30.40
2022-12-19T17:58:12.420Z,33.25
2022-12-19T18:00:40.885Z,36.40
2022-12-19T18:03:34.236Z,34.63
2022-12-19T18:06:01.165Z,32.05
2022-12-19T18:08:32.426Z,31.10
2022-12-19T18:11:02.985Z,32.13
2022-12-19T18:13:32.227Z,35.63
2022-12-19T18:16:02.746Z,36.50
2022-12-19T18:18:33.482Z,33.22
2022-12-19T18:21:01.346Z,45.08
2022-12-19T18:23:30.455Z,37.17
2022-12-19T18:26:01.880Z,34.60
2022-12-19T18:28:29.579Z,35.65
2022-12-19T18:31:04.325Z,36.60
2022-12-19T18:33:37.681Z,35.70
2022-12-19T18:36:05.901Z,41.33
2022-12-19T18:38:33.007Z,38.22
2022-12-19T18:40:59.868Z,32.42
2022-12-19T18:43:26.827Z,34.78
2022-12-19T18:45:53.967Z,32.25
2022-12-19T18:48:26.409Z,38.38
2022-12-19T18:50:55.834Z,36.17
2022-12-19T18:53:29.824Z,35.60
2022-12-19T18:56:03.036Z,37.42
2022-12-19T18:58:30.241Z,37.85
2022-12-19T19:00:59.777Z,38.65
2022-12-19T19:03:36.491Z,35.30
2022-12-19T19:06:05.962Z,35.78
2022-12-19T19:08:34.468Z,39.83
2022-12-19T19:11:01.675Z,33.85
2022-12-19T19:13:28.586Z,36.95
2022-12-19T19:15:59.110Z,41.25
2022-12-19T19:18:41.666Z,39.53
2022-12-19T19:21:11.253Z,39.45
2022-12-19T19:23:49.027Z,42.17
2022-12-19T19:26:15.954Z,114.40
2022-12-19T19:28:47.053Z,36.28
2022-12-19T19:31:19.865Z,41.33
2022-12-19T19:33:52.053Z,41.67
2022-12-19T19:36:23.192Z,41.30
2022-12-19T19:38:54.873Z,36.20
2022-12-19T19:41:22.801Z,39.20
2022-12-19T19:43:50.052Z,47.03
2022-12-19T19:46:16.979Z,45.45
2022-12-19T19:48:44.416Z,40.00
2022-12-19T19:51:14.627Z,36.97
2022-12-19T19:53:41.424Z,45.67
2022-12-19T19:56:08.261Z,38.35
2022-12-19T19:58:35.259Z,38.90
2022-12-19T20:01:09.027Z,42.25
2022-12-19T20:03:36.495Z,44.40
2022-12-19T20:06:04.019Z,45.92
2022-12-19T20:08:38.756Z,48.08
2022-12-19T20:11:06.487Z,40.92
2022-12-19T20:13:37.330Z,36.80
2022-12-19T20:16:12.518Z,38.35
2022-12-19T20:18:40.337Z,37.80
2022-12-19T20:21:13.132Z,36.55
2022-12-19T20:23:41.102Z,33.83
2022-12-19T20:26:08.315Z,44.75
2022-12-19T20:28:35.542Z,47.80
2022-12-19T20:31:02.747Z,44.90
2022-12-19T20:33:29.797Z,43.17
2022-12-19T20:35:58.352Z,42.42
2022-12-19T20:38:25.417Z,42.88
2022-12-19T20:40:56.097Z,28.80
2022-12-19T20:43:24.517Z,44.10
2022-12-19T20:45:52.162Z,43.72
2022-12-19T20:48:18.965Z,40.30
2022-12-19T20:50:46.270Z,42.35
2022-12-19T20:53:13.125Z,33.03
2022-12-19T20:55:40.145Z,39.58
2022-12-19T20:58:43.477Z,58.78
2022-12-19T21:01:23.228Z,32.83
2022-12-19T21:03:51.621Z,59.38
2022-12-19T21:06:21.376Z,48.50
2022-12-19T21:08:48.724Z,49.20
2022-12-19T21:11:18.821Z,36.60
2022-12-19T21:13:45.855Z,48.45
2022-12-19T21:16:16.091Z,39.38
2022-12-19T21:18:45.061Z,34.30
2022-12-19T21:21:18.217Z,43.03
2022-12-19T21:23:45.660Z,48.90
2022-12-19T21:26:14.787Z,39.83
2022-12-19T21:28:43.765Z,39.75
2022-12-19T21:31:17.093Z,36.03
2022-12-19T21:36:27.678Z,34.45
2022-12-19T21:38:57.617Z,53.85
2022-12-19T21:41:27.320Z,44.75
2022-12-19T21:43:56.655Z,37.10
2022-12-19T21:46:38.317Z,38.92
2022-12-19T21:49:09.120Z,44.22
2022-12-19T21:51:36.326Z,40.45
2022-12-19T21:54:05.507Z,46.95
2022-12-19T21:56:35.461Z,41.63
2022-12-19T21:59:05.459Z,51.63
2022-12-19T22:01:33.293Z,59.92
2022-12-19T22:04:07.604Z,44.95
2022-12-19T22:06:40.679Z,42.92
2022-12-19T22:09:12.094Z,45.58
2022-12-19T22:11:38.885Z,50.80
2022-12-19T22:14:06.955Z,47.53
2022-12-19T22:16:35.011Z,39.50
2022-12-19T22:19:02.307Z,41.28
2022-12-19T22:21:29.132Z,48.20
2022-12-19T22:24:04.090Z,39.60
2022-12-19T22:26:32.626Z,39.67
2022-12-19T22:28:59.533Z,46.35
2022-12-19T22:31:28.171Z,40.75
2022-12-19T22:33:58.271Z,42.45
2022-12-19T22:36:28.659Z,42.45
2022-12-19T22:38:57.021Z,39.03
2022-12-19T22:41:24.431Z,43.63
2022-12-19T22:43:52.300Z,43.78
2022-12-19T22:46:28.740Z,35.58
2022-12-19T22:48:58.293Z,38.67
2022-12-19T22:51:26.660Z,42.50
2022-12-19T22:53:54.710Z,40.30
2022-12-19T22:56:25.754Z,45.00
2022-12-19T22:58:55.372Z,45.80
2022-12-19T23:01:29.525Z,46.35
2022-12-19T23:03:59.422Z,50.22
2022-12-19T23:06:27.971Z,40.17
2022-12-19T23:08:55.163Z,38.72
2022-12-19T23:11:32.320Z,42.22
2022-12-19T23:14:00.557Z,42.03
2022-12-19T23:16:27.877Z,39.40
2022-12-19T23:18:54.738Z,48.78
2022-12-19T23:21:24.158Z,37.33
2022-12-19T23:23:54.155Z,43.22
2022-12-19T23:26:29.624Z,40.17
2022-12-19T23:29:02.485Z,40.35
2022-12-19T23:31:30.204Z,41.05
2022-12-19T23:33:58.904Z,30.63
2022-12-19T23:37:08.479Z,34.92
2022-12-19T23:39:14.869Z,41.55
2022-12-19T23:41:42.119Z,38.70
2022-12-19T23:44:09.862Z,38.63
2022-12-19T23:46:38.183Z,39.70
2022-12-19T23:49:05.136Z,37.85
2022-12-19T23:51:32.367Z,43.80
2022-12-19T23:53:59.613Z,41.63
2022-12-19T23:56:29.799Z,34.97
2022-12-19T23:58:56.654Z,38.38
